createdAt,value
2023-06-07T00:02:29.612Z,5.50
2023-06-07T00:04:59.941Z,5.45
2023-06-07T00:07:26.447Z,5.13
2023-06-07T00:09:52.824Z,5.32
2023-06-07T00:12:19.189Z,5.78
2023-06-07T00:14:45.574Z,5.20
2023-06-07T00:17:12.259Z,5.32
2023-06-07T00:19:38.687Z,5.78
2023-06-07T00:22:05.210Z,5.32
2023-06-07T00:24:31.661Z,4.90
2023-06-07T00:26:58.160Z,5.78
2023-06-07T00:29:24.620Z,4.90
2023-06-07T00:31:51.157Z,5.45
2023-06-07T00:34:17.694Z,5.00
2023-06-07T00:36:44.052Z,5.10
2023-06-07T00:39:10.519Z,5.35
2023-06-07T00:41:36.890Z,4.93
2023-06-07T00:44:03.431Z,5.18
2023-06-07T00:46:31.700Z,5.13
2023-06-07T00:48:58.964Z,5.53
2023-06-07T00:51:29.080Z,4.78
2023-06-07T00:53:58.318Z,5.43
2023-06-07T00:56:24.936Z,5.07
2023-06-07T00:58:51.325Z,5.03
2023-06-07T01:01:17.665Z,5.03
2023-06-07T01:03:44.750Z,5.03
2023-06-07T01:06:11.564Z,4.95
2023-06-07T01:08:38.205Z,5.35
2023-06-07T01:11:05.927Z,5.00
2023-06-07T01:13:32.961Z,5.05
2023-06-07T01:15:59.956Z,5.15
2023-06-07T01:18:28.088Z,5.20
2023-06-07T01:20:56.689Z,5.15
2023-06-07T01:23:33.514Z,4.75
2023-06-07T01:26:01.523Z,4.93
2023-06-07T01:28:32.511Z,5.32
2023-06-07T01:30:59.843Z,5.15
2023-06-07T01:33:26.362Z,5.13
2023-06-07T01:35:54.946Z,4.70
2023-06-07T01:38:22.627Z,4.18
2023-06-07T01:40:51.707Z,4.95
2023-06-07T01:43:19.318Z,5.45
2023-06-07T01:45:46.890Z,5.15
2023-06-07T01:48:13.531Z,4.78
2023-06-07T01:50:40.008Z,5.18
2023-06-07T01:53:06.782Z,4.82
2023-06-07T01:55:33.661Z,5.15
2023-06-07T01:58:32.378Z,5.40
2023-06-07T02:01:01.938Z,5.30
2023-06-07T02:03:44.914Z,5.28
2023-06-07T02:06:14.759Z,5.13
2023-06-07T02:08:46.259Z,5.22
2023-06-07T02:11:14.708Z,5.30
2023-06-07T02:13:43.158Z,5.13
2023-06-07T02:16:09.664Z,4.78
2023-06-07T02:18:36.067Z,5.07
2023-06-07T02:21:02.469Z,5.10
2023-06-07T02:23:28.958Z,4.90
2023-06-07T02:25:55.579Z,5.57
2023-06-07T02:28:21.931Z,4.65
2023-06-07T02:30:48.364Z,5.13
2023-06-07T02:33:15.298Z,4.97
2023-06-07T02:35:44.666Z,5.30
2023-06-07T02:38:11.114Z,5.13
2023-06-07T02:40:37.512Z,5.18
2023-06-07T02:43:03.973Z,5.28
2023-06-07T02:45:30.409Z,5.20
2023-06-07T02:47:56.910Z,4.40
2023-06-07T02:50:23.338Z,5.53
2023-06-07T02:52:49.828Z,5.32
2023-06-07T02:55:16.199Z,5.22
2023-06-07T02:57:42.799Z,5.53
2023-06-07T03:00:09.957Z,4.60
2023-06-07T03:02:36.510Z,5.32
2023-06-07T03:05:03.120Z,4.85
2023-06-07T03:07:29.569Z,4.95
2023-06-07T03:09:56.072Z,5.45
2023-06-07T03:12:22.476Z,5.38
2023-06-07T03:14:48.905Z,5.03
2023-06-07T03:17:16.796Z,5.10
2023-06-07T03:19:43.271Z,4.72
2023-06-07T03:22:09.738Z,5.32
2023-06-07T03:24:36.377Z,4.95
2023-06-07T03:27:06.242Z,5.00
2023-06-07T03:29:32.929Z,5.13
2023-06-07T03:31:59.707Z,5.63
2023-06-07T03:34:26.140Z,5.80
2023-06-07T03:36:52.551Z,5.93
2023-06-07T03:39:19.023Z,4.80
2023-06-07T03:41:45.638Z,5.70
2023-06-07T03:44:12.737Z,5.80
2023-06-07T03:46:39.595Z,5.93
2023-06-07T03:49:06.254Z,5.63
2023-06-07T03:51:32.681Z,5.70
2023-06-07T03:53:59.189Z,5.07
2023-06-07T03:56:25.874Z,5.32
2023-06-07T03:58:52.724Z,5.15
2023-06-07T04:01:19.164Z,4.88
2023-06-07T04:03:45.980Z,5.28
2023-06-07T04:06:12.621Z,5.22
2023-06-07T04:08:39.020Z,5.53
2023-06-07T04:11:05.838Z,6.05
2023-06-07T04:13:32.433Z,5.35
2023-06-07T04:15:59.273Z,5.72
2023-06-07T04:18:25.656Z,5.97
2023-06-07T04:20:52.072Z,6.90
2023-06-07T04:23:18.668Z,5.88
2023-06-07T04:25:45.275Z,6.43
2023-06-07T04:28:11.700Z,6.50
2023-06-07T04:30:38.096Z,6.93
2023-06-07T04:33:05.737Z,7.00
2023-06-07T04:35:32.354Z,6.55
2023-06-07T04:37:59.080Z,6.82
2023-06-07T04:40:26.185Z,6.43
2023-06-07T04:42:59.290Z,6.75
2023-06-07T04:45:25.625Z,6.90
2023-06-07T04:47:52.148Z,6.15
2023-06-07T04:50:18.595Z,6.93
2023-06-07T04:52:45.074Z,5.97
2023-06-07T04:55:11.451Z,6.03
2023-06-07T04:57:37.859Z,5.78
2023-06-07T05:00:05.043Z,6.95
2023-06-07T05:02:31.693Z,7.43
2023-06-07T05:04:58.155Z,6.22
2023-06-07T05:07:24.621Z,6.57
2023-06-07T05:09:51.070Z,6.38
2023-06-07T05:12:17.462Z,6.03
2023-06-07T05:14:43.834Z,6.57
2023-06-07T05:17:10.245Z,5.97
2023-06-07T05:19:36.611Z,5.80
2023-06-07T05:22:03.021Z,5.70
2023-06-07T05:24:29.404Z,5.55
2023-06-07T05:26:55.773Z,6.43
2023-06-07T05:29:22.146Z,6.47
2023-06-07T05:31:48.515Z,6.47
2023-06-07T05:34:14.893Z,5.13
2023-06-07T05:36:41.312Z,5.80
2023-06-07T05:39:07.711Z,6.07
2023-06-07T05:41:34.184Z,6.13
2023-06-07T05:44:00.584Z,6.20
2023-06-07T05:46:26.989Z,5.65
2023-06-07T05:48:53.406Z,5.75
2023-06-07T05:51:19.790Z,6.15
2023-06-07T05:53:46.252Z,5.93
2023-06-07T05:56:12.606Z,5.72
2023-06-07T05:58:38.944Z,6.57
2023-06-07T06:01:05.322Z,6.50
2023-06-07T06:03:31.902Z,6.20
2023-06-07T06:05:58.341Z,5.70
2023-06-07T06:08:24.785Z,5.80
2023-06-07T06:10:51.236Z,5.10
2023-06-07T06:13:17.595Z,5.70
2023-06-07T06:15:43.968Z,4.82
2023-06-07T06:18:10.357Z,4.38
2023-06-07T06:20:36.752Z,5.55
2023-06-07T06:23:03.336Z,4.70
2023-06-07T06:25:29.696Z,4.85
2023-06-07T06:27:56.086Z,4.57
2023-06-07T06:30:22.538Z,4.80
2023-06-07T06:32:50.496Z,5.45
2023-06-07T06:35:18.254Z,5.38
2023-06-07T06:37:44.635Z,5.03
2023-06-07T06:40:11.343Z,4.97
2023-06-07T06:42:37.761Z,5.80
2023-06-07T06:45:05.351Z,6.40
2023-06-07T06:47:31.741Z,6.78
2023-06-07T06:49:58.142Z,5.72
2023-06-07T06:52:25.453Z,5.70
2023-06-07T06:54:51.814Z,5.60
2023-06-07T06:57:19.212Z,6.10
2023-06-07T06:59:47.572Z,5.25
2023-06-07T07:02:15.906Z,5.30
2023-06-07T07:04:42.504Z,5.13
2023-06-07T07:07:08.917Z,5.50
2023-06-07T07:09:35.311Z,5.72
2023-06-07T07:12:02.073Z,4.97
2023-06-07T07:14:28.450Z,5.68
2023-06-07T07:16:57.218Z,5.07
2023-06-07T07:19:23.615Z,5.30
2023-06-07T07:21:50.044Z,4.80
2023-06-07T07:24:16.570Z,3.83
2023-06-07T07:26:43.040Z,3.80
2023-06-07T07:29:09.545Z,5.55
2023-06-07T07:31:35.981Z,4.60
2023-06-07T07:34:03.780Z,4.65
2023-06-07T07:36:30.603Z,4.22
2023-06-07T07:38:56.986Z,4.35
2023-06-07T07:41:23.494Z,4.95
2023-06-07T07:43:49.887Z,4.88
2023-06-07T07:46:19.512Z,4.65
2023-06-07T07:48:45.928Z,4.78
2023-06-07T07:51:12.318Z,4.85
2023-06-07T07:53:38.710Z,4.22
2023-06-07T07:56:05.069Z,5.10
2023-06-07T07:58:31.440Z,4.78
2023-06-07T08:00:57.841Z,4.78
2023-06-07T08:03:24.351Z,4.28
2023-06-07T08:05:50.886Z,3.80
2023-06-07T08:08:17.512Z,4.40
2023-06-07T08:10:43.960Z,4.18
2023-06-07T08:13:10.313Z,4.32
2023-06-07T08:15:36.637Z,4.20
2023-06-07T08:18:03.047Z,4.28
2023-06-07T08:20:29.480Z,3.90
2023-06-07T08:22:55.882Z,4.18
2023-06-07T08:25:22.248Z,3.70
2023-06-07T08:27:49.442Z,4.05
2023-06-07T08:30:16.054Z,4.70
2023-06-07T08:32:44.210Z,4.90
2023-06-07T08:35:12.055Z,4.80
2023-06-07T08:37:38.762Z,4.20
2023-06-07T08:40:06.034Z,4.22
2023-06-07T08:42:33.963Z,5.15
2023-06-07T08:45:00.878Z,4.70
2023-06-07T08:47:29.463Z,4.65
2023-06-07T08:49:57.544Z,4.47
2023-06-07T08:52:25.258Z,4.20
2023-06-07T08:54:53.675Z,4.28
2023-06-07T08:57:20.308Z,4.35
2023-06-07T08:59:48.030Z,4.43
2023-06-07T09:02:14.470Z,4.00
2023-06-07T09:04:41.640Z,4.43
2023-06-07T09:07:11.331Z,4.78
2023-06-07T09:09:39.955Z,4.25
2023-06-07T09:12:06.596Z,4.60
2023-06-07T09:14:33.247Z,4.55
2023-06-07T09:17:00.726Z,4.72
2023-06-07T09:19:38.842Z,4.55
2023-06-07T09:22:06.891Z,4.43
2023-06-07T09:24:34.461Z,4.80
2023-06-07T09:27:02.983Z,4.57
2023-06-07T09:29:30.253Z,4.95
2023-06-07T09:31:57.553Z,4.75
2023-06-07T09:34:25.603Z,4.70
2023-06-07T09:36:57.362Z,4.60
2023-06-07T09:41:56.201Z,4.47
2023-06-07T09:44:26.693Z,4.78
2023-06-07T09:46:54.241Z,4.85
2023-06-07T09:49:32.525Z,4.95
2023-06-07T09:51:59.220Z,4.90
2023-06-07T09:54:42.343Z,5.00
2023-06-07T09:57:10.789Z,4.93
2023-06-07T09:59:38.971Z,4.70
2023-06-07T10:02:29.734Z,4.72
2023-06-07T10:04:58.347Z,4.88
2023-06-07T10:07:28.474Z,5.55
2023-06-07T10:09:58.642Z,5.43
2023-06-07T10:12:28.639Z,4.50
2023-06-07T10:14:56.021Z,4.35
2023-06-07T10:17:29.229Z,4.60
2023-06-07T10:20:00.592Z,5.75
2023-06-07T10:22:35.608Z,5.05
2023-06-07T10:25:15.571Z,5.18
2023-06-07T10:28:00.507Z,5.00
2023-06-07T10:30:31.236Z,5.43
2023-06-07T10:32:59.297Z,4.93
2023-06-07T10:35:26.002Z,4.72
2023-06-07T10:37:52.439Z,5.07
2023-06-07T10:40:18.921Z,5.05
2023-06-07T10:42:45.989Z,5.32
2023-06-07T10:45:12.795Z,5.40
2023-06-07T10:47:39.205Z,4.65
2023-06-07T10:50:06.256Z,5.32
2023-06-07T10:52:32.982Z,5.05
2023-06-07T10:54:59.471Z,5.50
2023-06-07T10:57:37.137Z,4.80
2023-06-07T11:02:48.512Z,5.20
2023-06-07T11:05:15.351Z,5.55
2023-06-07T11:07:41.956Z,4.88
2023-06-07T11:10:08.790Z,5.10
2023-06-07T11:12:38.409Z,5.63
2023-06-07T11:15:33.910Z,5.30
2023-06-07T11:18:07.514Z,5.35
2023-06-07T11:20:37.605Z,5.22
2023-06-07T11:23:20.331Z,5.40
2023-06-07T11:25:47.017Z,5.32
2023-06-07T11:28:13.788Z,5.18
2023-06-07T11:30:42.383Z,5.32
2023-06-07T11:33:08.892Z,5.03
2023-06-07T11:35:35.450Z,5.15
2023-06-07T11:38:04.729Z,4.82
2023-06-07T11:40:31.114Z,4.82
2023-06-07T11:42:57.700Z,4.63
2023-06-07T11:45:24.160Z,5.07
2023-06-07T11:47:53.554Z,5.22
2023-06-07T11:50:21.307Z,4.65
2023-06-07T11:52:47.897Z,4.82
2023-06-07T11:55:14.316Z,4.28
2023-06-07T11:57:40.813Z,4.30
2023-06-07T12:00:08.462Z,4.30
2023-06-07T12:02:36.674Z,4.90
2023-06-07T12:05:03.364Z,4.72
2023-06-07T12:07:30.468Z,4.53
2023-06-07T12:09:56.907Z,5.00
2023-06-07T12:12:23.263Z,5.00
2023-06-07T12:15:00.311Z,4.72
2023-06-07T12:17:29.007Z,4.55
2023-06-07T12:20:07.068Z,4.78
2023-06-07T12:22:33.818Z,4.68
2023-06-07T12:25:09.918Z,4.90
2023-06-07T12:27:36.795Z,4.00
2023-06-07T12:30:03.832Z,4.50
2023-06-07T12:32:31.627Z,4.57
2023-06-07T12:35:00.382Z,4.57
2023-06-07T12:37:26.821Z,4.50
2023-06-07T12:39:53.207Z,4.18
2023-06-07T12:42:19.626Z,4.28
2023-06-07T12:44:46.001Z,4.25
2023-06-07T12:47:12.438Z,4.30
2023-06-07T12:49:38.891Z,4.13
2023-06-07T12:52:05.488Z,3.85
2023-06-07T12:54:32.025Z,3.83
2023-06-07T12:56:58.391Z,4.30
2023-06-07T12:59:24.787Z,4.90
2023-06-07T13:01:51.230Z,4.90
2023-06-07T13:04:17.597Z,4.40
2023-06-07T13:06:44.001Z,4.40
2023-06-07T13:09:10.820Z,5.10
2023-06-07T13:11:37.974Z,4.82
2023-06-07T13:14:04.533Z,4.00
2023-06-07T13:16:31.572Z,4.35
2023-06-07T13:18:58.928Z,4.63
2023-06-07T13:21:25.343Z,4.38
2023-06-07T13:23:51.732Z,4.40
2023-06-07T13:26:18.423Z,4.80
2023-06-07T13:28:44.935Z,4.00
2023-06-07T13:31:12.446Z,4.30
2023-06-07T13:33:40.853Z,4.47
2023-06-07T13:36:07.812Z,4.80
2023-06-07T13:38:34.974Z,3.75
2023-06-07T13:41:01.734Z,4.22
2023-06-07T13:43:44.337Z,4.80
2023-06-07T13:46:15.301Z,4.20
2023-06-07T13:48:41.983Z,5.43
2023-06-07T13:51:10.144Z,4.13
2023-06-07T13:53:37.061Z,3.92
2023-06-07T13:56:03.774Z,4.13
2023-06-07T13:58:30.183Z,4.13
2023-06-07T14:00:56.571Z,4.15
2023-06-07T14:03:23.145Z,4.45
2023-06-07T14:05:49.585Z,4.10
2023-06-07T14:08:16.021Z,4.00
2023-06-07T14:10:42.447Z,4.18
2023-06-07T14:13:08.874Z,3.85
2023-06-07T14:15:35.317Z,4.13
2023-06-07T14:18:01.688Z,3.97
2023-06-07T14:20:28.097Z,4.15
2023-06-07T14:22:54.480Z,4.15
2023-06-07T14:25:20.825Z,3.72
2023-06-07T14:27:47.288Z,3.38
2023-06-07T14:30:14.096Z,4.20
2023-06-07T14:32:40.495Z,4.38
2023-06-07T14:35:07.307Z,4.38
2023-06-07T14:37:33.869Z,4.28
2023-06-07T14:40:00.237Z,3.97
2023-06-07T14:42:26.693Z,4.50
2023-06-07T14:44:56.887Z,4.22
2023-06-07T14:47:24.013Z,3.95
2023-06-07T14:49:53.665Z,4.32
2023-06-07T14:52:20.454Z,4.35
2023-06-07T14:54:46.885Z,3.88
2023-06-07T14:57:13.452Z,4.32
2023-06-07T14:59:40.162Z,4.35
2023-06-07T15:02:08.190Z,3.92
2023-06-07T15:04:34.600Z,4.35
2023-06-07T15:07:01.016Z,3.83
2023-06-07T15:09:27.458Z,4.18
2023-06-07T15:11:54.025Z,3.90
2023-06-07T15:14:20.429Z,4.30
2023-06-07T15:16:46.836Z,4.05
2023-06-07T15:19:13.281Z,4.15
2023-06-07T15:21:39.619Z,4.15
2023-06-07T15:24:06.243Z,4.30
2023-06-07T15:26:32.628Z,4.15
2023-06-07T15:28:59.513Z,3.80
2023-06-07T15:31:26.252Z,4.35
2023-06-07T15:33:52.682Z,4.30
2023-06-07T15:36:19.104Z,4.07
2023-06-07T15:38:45.487Z,4.10
2023-06-07T15:41:11.943Z,3.88
2023-06-07T15:43:44.812Z,4.38
2023-06-07T15:46:11.286Z,4.13
2023-06-07T15:48:37.683Z,3.63
2023-06-07T15:51:04.183Z,3.80
2023-06-07T15:53:30.504Z,3.80
2023-06-07T15:55:56.872Z,4.07
2023-06-07T15:58:23.296Z,4.18
2023-06-07T16:00:49.905Z,4.20
2023-06-07T16:03:16.576Z,4.07
2023-06-07T16:05:43.181Z,4.20
2023-06-07T16:08:14.066Z,3.85
2023-06-07T16:10:41.311Z,4.32
2023-06-07T16:13:10.039Z,3.88
2023-06-07T16:15:36.422Z,4.05
2023-06-07T16:18:04.410Z,4.35
2023-06-07T16:20:30.872Z,3.88
2023-06-07T16:22:57.261Z,4.03
2023-06-07T16:25:23.643Z,3.80
2023-06-07T16:27:50.025Z,3.95
2023-06-07T16:30:16.480Z,3.75
2023-06-07T16:32:42.877Z,3.78
2023-06-07T16:35:09.431Z,4.10
2023-06-07T16:37:35.769Z,3.97
2023-06-07T16:40:02.126Z,4.10
2023-06-07T16:42:28.535Z,4.15
2023-06-07T16:44:54.905Z,3.80
2023-06-07T16:47:21.374Z,4.10
2023-06-07T16:49:47.778Z,3.97
2023-06-07T16:52:14.613Z,4.32
2023-06-07T16:54:41.210Z,4.28
2023-06-07T16:57:07.623Z,4.10
2023-06-07T16:59:34.012Z,4.68
2023-06-07T17:02:00.456Z,4.40
2023-06-07T17:04:26.902Z,4.18
2023-06-07T17:06:53.248Z,4.60
2023-06-07T17:09:19.617Z,4.25
2023-06-07T17:11:45.957Z,3.88
2023-06-07T17:14:13.582Z,3.63
2023-06-07T17:16:40.239Z,4.35
2023-06-07T17:19:06.636Z,3.88
2023-06-07T17:21:32.989Z,4.10
2023-06-07T17:23:59.443Z,3.92
2023-06-07T17:26:25.822Z,4.10
2023-06-07T17:28:52.196Z,3.95
2023-06-07T17:31:18.642Z,4.43
2023-06-07T17:33:45.044Z,3.80
2023-06-07T17:36:11.479Z,3.90
2023-06-07T17:38:37.960Z,3.80
2023-06-07T17:41:04.348Z,3.63
2023-06-07T17:43:30.697Z,4.35
2023-06-07T17:45:57.107Z,4.10
2023-06-07T17:48:24.845Z,3.75
2023-06-07T17:50:51.235Z,4.07
2023-06-07T17:53:17.705Z,4.13
2023-06-07T17:55:44.991Z,3.80
2023-06-07T17:58:11.948Z,3.58
2023-06-07T18:00:38.396Z,3.60
2023-06-07T18:03:07.669Z,3.78
2023-06-07T18:05:34.140Z,3.70
2023-06-07T18:08:00.540Z,3.70
2023-06-07T18:10:27.111Z,3.47
2023-06-07T18:12:53.515Z,3.38
2023-06-07T18:15:19.945Z,3.75
2023-06-07T18:17:46.339Z,3.50
2023-06-07T18:20:13.328Z,3.50
2023-06-07T18:22:39.765Z,3.47
2023-06-07T18:25:06.630Z,3.58
2023-06-07T18:27:33.158Z,4.07
2023-06-07T18:29:59.576Z,3.67
2023-06-07T18:32:26.072Z,3.78
2023-06-07T18:34:52.468Z,3.88
2023-06-07T18:37:18.874Z,4.22
2023-06-07T18:39:45.287Z,3.83
2023-06-07T18:42:13.726Z,3.75
2023-06-07T18:44:42.389Z,3.90
2023-06-07T18:47:08.985Z,3.83
2023-06-07T18:49:35.517Z,3.75
2023-06-07T18:52:02.018Z,3.80
2023-06-07T18:54:28.408Z,3.50
2023-06-07T18:56:54.823Z,4.43
2023-06-07T18:59:21.240Z,4.28
2023-06-07T19:01:51.913Z,3.85
2023-06-07T19:04:19.522Z,4.22
2023-06-07T19:06:48.639Z,3.97
2023-06-07T19:09:17.484Z,3.58
2023-06-07T19:11:43.906Z,3.63
2023-06-07T19:14:10.369Z,4.07
2023-06-07T19:16:36.808Z,3.53
2023-06-07T19:19:03.288Z,4.07
2023-06-07T19:21:31.886Z,3.92
2023-06-07T19:24:01.516Z,3.65
2023-06-07T19:26:29.671Z,4.00
2023-06-07T19:28:56.151Z,4.47
2023-06-07T19:31:22.541Z,4.47
2023-06-07T19:33:49.726Z,4.07
2023-06-07T19:36:16.146Z,4.13
2023-06-07T19:38:42.578Z,3.95
2023-06-07T19:41:08.984Z,4.00
2023-06-07T19:43:35.387Z,3.97
2023-06-07T19:46:01.844Z,4.20
2023-06-07T19:48:28.418Z,4.28
2023-06-07T19:50:54.785Z,4.07
2023-06-07T19:53:21.155Z,3.72
2023-06-07T19:55:48.006Z,4.60
2023-06-07T19:58:16.115Z,4.70
2023-06-07T20:00:42.775Z,4.25
2023-06-07T20:03:09.516Z,4.68
2023-06-07T20:05:36.076Z,4.88
2023-06-07T20:08:02.504Z,4.75
2023-06-07T20:10:29.035Z,4.47
2023-06-07T20:12:55.426Z,4.28
2023-06-07T20:15:21.835Z,4.45
2023-06-07T20:17:48.283Z,4.43
2023-06-07T20:20:14.687Z,5.68
2023-06-07T20:22:41.177Z,4.70
2023-06-07T20:25:08.018Z,4.78
2023-06-07T20:27:34.372Z,5.10
2023-06-07T20:30:01.033Z,5.00
2023-06-07T20:32:29.111Z,5.45
2023-06-07T20:34:55.552Z,4.65
2023-06-07T20:37:21.984Z,5.50
2023-06-07T20:39:48.443Z,4.63
2023-06-07T20:42:15.041Z,4.40
2023-06-07T20:44:52.628Z,5.10
2023-06-07T20:47:20.018Z,5.30
2023-06-07T20:49:46.680Z,5.65
2023-06-07T20:52:13.133Z,4.90
2023-06-07T20:54:39.541Z,4.97
2023-06-07T20:57:06.497Z,4.78
2023-06-07T20:59:34.431Z,5.70
2023-06-07T21:02:00.929Z,5.30
2023-06-07T21:04:27.509Z,5.18
2023-06-07T21:06:53.973Z,5.22
2023-06-07T21:09:20.341Z,5.50
2023-06-07T21:11:46.934Z,5.50
2023-06-07T21:14:13.348Z,5.63
2023-06-07T21:16:39.831Z,4.43
2023-06-07T21:19:06.284Z,5.13
2023-06-07T21:21:32.747Z,4.57
2023-06-07T21:23:59.187Z,5.35
2023-06-07T21:26:25.581Z,4.90
2023-06-07T21:28:51.964Z,4.97
2023-06-07T21:31:18.417Z,5.25
2023-06-07T21:34:01.432Z,5.22
2023-06-07T21:36:29.170Z,4.70
2023-06-07T21:38:59.287Z,5.60
2023-06-07T21:41:26.289Z,4.80
2023-06-07T21:43:52.695Z,5.15
2023-06-07T21:46:19.300Z,4.60
2023-06-07T21:48:46.034Z,4.70
2023-06-07T21:51:12.954Z,5.32
2023-06-07T21:53:39.351Z,5.53
2023-06-07T21:56:05.861Z,5.50
2023-06-07T21:58:32.336Z,5.32
2023-06-07T22:00:58.817Z,5.45
2023-06-07T22:03:25.281Z,5.30
2023-06-07T22:05:51.753Z,5.70
2023-06-07T22:08:18.369Z,6.03
2023-06-07T22:10:44.864Z,5.93
2023-06-07T22:13:11.330Z,6.07
2023-06-07T22:15:37.734Z,5.43
2023-06-07T22:18:04.234Z,5.80
2023-06-07T22:20:30.855Z,5.10
2023-06-07T22:22:57.556Z,6.10
2023-06-07T22:25:39.415Z,6.10
2023-06-07T22:28:11.820Z,5.78
2023-06-07T22:30:38.225Z,5.40
2023-06-07T22:33:04.713Z,6.03
2023-06-07T22:35:31.258Z,5.75
2023-06-07T22:37:57.612Z,5.90
2023-06-07T22:40:24.036Z,5.95
2023-06-07T22:42:50.403Z,6.20
2023-06-07T22:45:16.843Z,5.97
2023-06-07T22:47:43.222Z,5.47
2023-06-07T22:50:09.933Z,5.70
2023-06-07T22:52:36.335Z,5.82
2023-06-07T22:55:03.816Z,6.25
2023-06-07T22:57:31.106Z,5.95
2023-06-07T22:59:57.564Z,6.40
2023-06-07T23:02:24.010Z,6.03
2023-06-07T23:04:50.503Z,6.75
2023-06-07T23:07:16.907Z,5.97
2023-06-07T23:09:44.239Z,5.60
2023-06-07T23:12:10.856Z,6.10
2023-06-07T23:14:37.396Z,5.65
2023-06-07T23:17:04.052Z,6.72
2023-06-07T23:19:30.424Z,5.78
2023-06-07T23:21:56.810Z,6.28
2023-06-07T23:24:24.700Z,5.78
2023-06-07T23:26:51.135Z,7.22
2023-06-07T23:29:17.693Z,6.50
2023-06-07T23:31:44.123Z,5.85
2023-06-07T23:34:10.572Z,6.53
2023-06-07T23:36:36.978Z,6.65
2023-06-07T23:39:03.452Z,5.90
2023-06-07T23:41:29.826Z,6.75
2023-06-07T23:43:56.211Z,6.18
2023-06-07T23:46:22.642Z,6.68
2023-06-07T23:48:49.063Z,6.07
2023-06-07T23:51:16.687Z,6.38
2023-06-07T23:53:43.040Z,6.85
2023-06-07T23:56:09.461Z,6.65
2023-06-07T23:58:36.064Z,6.28
